Time;durP1;ratioP1;P1;durP2;ratioP2;P2;SDS_P1;SDS_P2;PMS_P1;PMS_P2;Temp;Humidity;BMP_temperature;BMP_pressure;BME280_temperature;BME280_humidity;BME280_pressure;Samples;Min_cycle;Max_cycle;Signal;HPM_P1;HPM_P2
2021/08/10 00:01:06;;;;;;;5.30;2.20;;;;;;;17.10;61.75;100903.72;5032089;28;20208;-85
2021/08/10 00:03:32;;;;;;;2.17;1.40;;;;;;;17.06;61.70;100904.97;5032205;28;20293;-84
2021/08/10 00:05:59;;;;;;;3.10;1.77;;;;;;;17.03;61.96;100906.06;5031681;28;20232;-84
2021/08/10 00:08:26;;;;;;;2.40;1.60;;;;;;;17.00;62.21;100907.22;5033747;28;20208;-84
2021/08/10 00:10:54;;;;;;;3.20;1.50;;;;;;;17.01;62.57;100900.00;5033507;28;20215;-85
2021/08/10 00:13:22;;;;;;;2.17;1.60;;;;;;;17.00;62.74;100899.16;5037630;28;20690;-82
2021/08/10 00:15:49;;;;;;;2.50;1.70;;;;;;;16.99;62.72;100905.50;5032673;28;20217;-85
2021/08/10 00:18:16;;;;;;;2.00;1.40;;;;;;;16.98;62.86;100903.81;5036039;28;20971;-85
2021/08/10 00:20:42;;;;;;;3.77;1.80;;;;;;;16.94;62.57;100902.34;5037395;28;20287;-84
2021/08/10 00:23:09;;;;;;;4.30;1.80;;;;;;;16.90;62.98;100908.97;5037399;28;20295;-84
2021/08/10 00:25:35;;;;;;;3.10;1.90;;;;;;;16.85;62.90;100897.75;5036812;28;20361;-84
2021/08/10 00:28:04;;;;;;;2.77;1.70;;;;;;;16.79;63.13;100903.66;5038220;28;20290;-84
2021/08/10 00:30:31;;;;;;;2.70;1.60;;;;;;;16.71;63.31;100892.69;5037856;28;20240;-84
2021/08/10 00:32:57;;;;;;;2.23;1.70;;;;;;;16.61;63.39;100889.06;5038146;28;20313;-83
2021/08/10 00:35:24;;;;;;;4.40;1.90;;;;;;;16.53;63.75;100883.47;5038672;28;20232;-84
2021/08/10 00:37:51;;;;;;;2.47;1.67;;;;;;;16.47;64.39;100875.94;5038692;28;20295;-84
2021/08/10 00:40:19;;;;;;;2.77;1.50;;;;;;;16.45;64.72;100878.75;5031789;28;20239;-85
2021/08/10 00:42:46;;;;;;;1.97;1.50;;;;;;;16.43;64.96;100885.25;5039858;28;20208;-83
2021/08/10 00:45:14;;;;;;;3.33;1.80;;;;;;;16.43;65.08;100893.31;5039606;28;20338;-84
2021/08/10 00:47:41;;;;;;;2.23;1.60;;;;;;;16.41;65.19;100885.38;5038404;28;20224;-84
2021/08/10 00:50:09;;;;;;;2.43;1.47;;;;;;;16.41;65.24;100892.56;5030209;28;20206;-85
2021/08/10 00:52:35;;;;;;;3.37;1.70;;;;;;;16.39;65.48;100889.16;5031612;28;20582;-84
2021/08/10 00:55:03;;;;;;;3.03;1.77;;;;;;;16.36;65.27;100890.25;5044521;28;20848;-84
2021/08/10 00:57:30;;;;;;;2.60;1.90;;;;;;;16.33;65.63;100888.69;5037516;28;20205;-84
2021/08/10 00:59:57;;;;;;;2.67;2.00;;;;;;;16.30;65.70;100886.25;5037461;28;20205;-83
2021/08/10 01:02:24;;;;;;;2.90;1.77;;;;;;;16.28;65.88;100880.16;5028974;28;20209;-83
2021/08/10 01:04:51;;;;;;;2.57;1.87;;;;;;;16.26;65.83;100886.66;5036325;28;20224;-84
2021/08/10 01:07:25;;;;;;;2.80;1.70;;;;;;;16.22;65.53;100877.13;5029293;28;20670;-84
2021/08/10 01:09:55;;;;;;;3.73;1.57;;;;;;;16.16;65.62;100872.25;5031311;28;20563;-83
2021/08/10 01:12:28;;;;;;;2.43;1.70;;;;;;;16.10;65.74;100875.47;5031273;28;20315;-82
2021/08/10 01:15:01;;;;;;;3.27;1.80;;;;;;;16.07;65.86;100873.03;5028498;28;20235;-84
2021/08/10 01:17:35;;;;;;;2.20;1.50;;;;;;;16.04;66.20;100875.97;5029583;28;20225;-83
2021/08/10 01:20:39;;;;;;;2.87;1.67;;;;;;;16.00;65.98;100877.19;5032849;28;20548;-82
2021/08/10 01:23:09;;;;;;;2.97;1.77;;;;;;;15.96;66.37;100871.22;5020820;28;20195;-83
2021/08/10 01:25:50;;;;;;;3.03;1.57;;;;;;;15.94;66.24;100886.63;5026050;28;20383;-84
2021/08/10 01:28:32;;;;;;;4.63;1.67;;;;;;;15.92;66.56;100892.13;5030624;28;20203;-84
2021/08/10 01:31:19;;;;;;;3.13;1.70;;;;;;;15.90;66.81;100893.22;5030811;28;20211;-84
2021/08/10 01:33:49;;;;;;;2.87;1.93;;;;;;;15.85;66.64;100884.69;5032528;28;20228;-85
2021/08/10 01:36:19;;;;;;;2.40;1.80;;;;;;;15.82;66.85;100890.31;5023589;28;20196;-84
2021/08/10 01:38:49;;;;;;;3.10;1.73;;;;;;;15.80;67.25;100892.25;5030021;28;20826;-84
2021/08/10 01:41:17;;;;;;;2.43;1.60;;;;;;;15.78;67.11;100888.84;5021437;28;20581;-83
2021/08/10 01:43:44;;;;;;;1.73;1.37;;;;;;;15.75;67.39;100881.91;5029952;28;20603;-82
2021/08/10 01:46:12;;;;;;;3.03;1.87;;;;;;;15.73;67.37;100878.50;5031668;28;20684;-84
2021/08/10 01:48:42;;;;;;;3.33;1.70;;;;;;;15.72;67.71;100876.78;5025610;28;20219;-84
2021/08/10 01:51:09;;;;;;;1.87;1.50;;;;;;;15.70;67.45;100876.06;5025343;28;20203;-83
2021/08/10 01:53:38;;;;;;;2.83;1.73;;;;;;;15.67;67.85;100873.59;5026808;28;20230;-82
2021/08/10 01:56:05;;;;;;;2.47;1.67;;;;;;;15.66;67.60;100881.78;5020652;28;20212;-82
2021/08/10 02:01:13;;;;;;;2.67;1.60;;;;;;;15.60;67.87;100873.25;5025001;28;20202;-82
2021/08/10 02:03:44;;;;;;;2.83;1.50;;;;;;;15.59;68.26;100878.72;5019603;28;20230;-82
2021/08/10 02:06:13;;;;;;;2.30;1.60;;;;;;;15.56;68.05;100881.69;5020934;28;20230;-82
2021/08/10 02:08:41;;;;;;;2.43;1.57;;;;;;;15.54;68.56;100881.78;5022184;28;20583;-83
2021/08/10 02:11:09;;;;;;;2.50;1.60;;;;;;;15.52;68.10;100883.72;5023492;28;20202;-82
2021/08/10 02:13:36;;;;;;;2.90;1.43;;;;;;;15.43;67.92;100880.91;5024949;28;20234;-81
2021/08/10 02:16:05;;;;;;;3.33;1.60;;;;;;;15.26;67.23;100880.41;5028638;28;20237;-79
2021/08/10 02:18:31;;;;;;;2.47;1.70;;;;;;;15.14;67.58;100880.53;5021351;28;20211;-82
2021/08/10 02:21:01;;;;;;;3.23;1.97;;;;;;;15.07;68.56;100877.47;5028901;28;20221;-81
2021/08/10 02:23:29;;;;;;;1.90;1.30;;;;;;;15.04;69.05;100872.38;5025010;28;20225;-82
2021/08/10 02:25:58;;;;;;;3.23;1.77;;;;;;;15.05;69.32;100867.88;5018621;28;20194;-84
2021/08/10 02:28:27;;;;;;;3.17;1.80;;;;;;;15.05;69.53;100868.69;5029843;28;20230;-81
2021/08/10 02:30:55;;;;;;;2.53;1.67;;;;;;;15.08;69.97;100865.78;5031880;28;20204;-82
2021/08/10 02:33:25;;;;;;;2.00;1.73;;;;;;;15.11;70.18;100870.06;5032385;28;20230;-82
2021/08/10 02:35:59;;;;;;;3.47;1.50;;;;;;;15.11;70.08;100862.84;5032387;28;20205;-82
2021/08/10 02:38:29;;;;;;;2.90;1.70;;;;;;;15.13;70.27;100868.97;5034578;28;20297;-82
2021/08/10 02:40:56;;;;;;;4.07;1.67;;;;;;;15.12;70.31;100869.06;5024135;28;20203;-81
2021/08/10 02:43:27;;;;;;;3.23;1.53;;;;;;;15.11;70.33;100864.69;5027235;28;20232;-84
2021/08/10 02:45:54;;;;;;;2.53;1.80;;;;;;;15.06;70.56;100859.66;5025963;28;20206;-81
2021/08/10 02:48:20;;;;;;;2.00;1.70;;;;;;;15.04;70.83;100861.66;5023698;28;20681;-80
2021/08/10 02:50:48;;;;;;;3.20;2.07;;;;;;;15.03;70.88;100862.63;5031023;28;20210;-80
2021/08/10 02:53:15;;;;;;;2.03;1.63;;;;;;;15.06;71.36;100857.00;5029032;28;20539;-80
2021/08/10 02:55:49;;;;;;;2.53;1.60;;;;;;;15.09;71.27;100859.44;5031227;28;20738;-80
2021/08/10 02:58:21;;;;;;;2.87;1.50;;;;;;;15.14;71.74;100867.97;5036591;28;20198;-80
2021/08/10 03:00:54;;;;;;;2.90;1.30;;;;;;;15.21;72.08;100863.00;5026707;28;20221;-80
2021/08/10 03:03:25;;;;;;;2.40;1.60;;;;;;;15.26;72.29;100866.16;5031734;28;20209;-80
2021/08/10 03:05:55;;;;;;;1.77;1.20;;;;;;;15.30;71.93;100862.25;5035206;28;20544;-80
2021/08/10 03:08:26;;;;;;;2.90;1.33;;;;;;;15.36;72.18;100867.16;5031634;28;20230;-80
2021/08/10 03:10:56;;;;;;;3.50;1.30;;;;;;;15.40;72.03;100868.63;5029908;28;20198;-80
2021/08/10 03:13:25;;;;;;;2.17;1.53;;;;;;;15.44;72.16;100861.16;5030476;28;20234;-80
2021/08/10 03:15:56;;;;;;;2.00;1.23;;;;;;;15.48;71.67;100862.63;5032571;28;20214;-80
2021/08/10 03:18:27;;;;;;;2.77;1.30;;;;;;;15.51;71.85;100857.00;5031807;28;20198;-80
2021/08/10 03:20:57;;;;;;;2.30;1.40;;;;;;;15.54;71.83;100873.72;5032064;28;20198;-80
2021/08/10 03:23:25;;;;;;;3.33;1.40;;;;;;;15.56;71.45;100863.75;5036391;28;20231;-80
2021/08/10 03:25:53;;;;;;;1.87;1.10;;;;;;;15.60;71.38;100875.94;5032645;28;20203;-80
2021/08/10 03:28:25;;;;;;;1.90;1.30;;;;;;;15.63;71.16;100874.81;5030298;28;20557;-80
2021/08/10 03:30:52;;;;;;;3.47;1.50;;;;;;;15.66;71.44;100874.59;5031842;28;20206;-80
2021/08/10 03:33:22;;;;;;;1.73;1.23;;;;;;;15.68;71.18;100869.09;5030849;28;20661;-80
2021/08/10 03:35:51;;;;;;;1.90;1.27;;;;;;;15.69;71.18;100871.66;5032482;28;20691;-80
2021/08/10 03:38:19;;;;;;;1.83;1.20;;;;;;;15.72;71.14;100878.63;5033557;28;20663;-80
2021/08/10 03:40:45;;;;;;;2.03;1.20;;;;;;;15.73;71.23;100873.13;5030240;28;20202;-80
2021/08/10 03:43:12;;;;;;;2.77;1.63;;;;;;;15.74;71.26;100864.09;5030853;28;20206;-81
2021/08/10 03:45:41;;;;;;;6.63;1.87;;;;;;;15.74;71.20;100863.22;5033198;28;20207;-80
2021/08/10 03:48:07;;;;;;;1.60;1.13;;;;;;;15.75;70.73;100864.94;5041886;28;20230;-81
2021/08/10 03:50:36;;;;;;;3.83;1.30;;;;;;;15.77;70.88;100871.88;5033570;28;20575;-80
2021/08/10 03:53:03;;;;;;;2.83;1.33;;;;;;;15.77;70.69;100865.66;5031770;28;20203;-80
2021/08/10 03:55:30;;;;;;;3.17;1.40;;;;;;;15.78;70.73;100859.28;5033333;28;20202;-81
2021/08/10 03:57:58;;;;;;;3.17;1.50;;;;;;;15.79;70.81;100861.00;5032694;28;20198;-80
2021/08/10 04:00:26;;;;;;;3.13;1.40;;;;;;;15.78;70.73;100857.47;5036078;28;20588;-80
2021/08/10 04:02:55;;;;;;;3.13;1.20;;;;;;;15.78;70.86;100854.78;5034488;28;20199;-80
2021/08/10 04:05:21;;;;;;;4.60;1.23;;;;;;;15.77;70.90;100854.91;5030905;28;20688;-80
2021/08/10 04:07:48;;;;;;;2.93;1.57;;;;;;;15.79;70.72;100844.88;5035696;28;20596;-81
2021/08/10 04:10:15;;;;;;;2.53;1.40;;;;;;;15.77;70.67;100845.00;5034557;28;20206;-80
2021/08/10 04:12:43;;;;;;;1.87;1.17;;;;;;;15.78;70.91;100856.59;5038006;28;21723;-80
2021/08/10 04:15:13;;;;;;;3.00;1.40;;;;;;;15.77;71.14;100850.38;5031654;28;20238;-80
2021/08/10 04:17:42;;;;;;;2.03;1.47;;;;;;;15.78;70.76;100856.59;5035462;28;20285;-80
2021/08/10 04:20:11;;;;;;;2.93;1.50;;;;;;;15.77;70.67;100857.59;5029589;28;20216;-80
2021/08/10 04:22:41;;;;;;;4.47;1.30;;;;;;;15.78;70.76;100870.03;5034771;28;20608;-81
2021/08/10 04:25:08;;;;;;;2.67;1.67;;;;;;;15.78;70.59;100862.84;5034620;28;20229;-80
2021/08/10 04:27:35;;;;;;;3.03;1.57;;;;;;;15.78;70.77;100857.47;5031480;28;20226;-80
2021/08/10 04:30:01;;;;;;;4.13;1.67;;;;;;;15.79;70.49;100855.63;5041310;28;20206;-80
2021/08/10 04:32:28;;;;;;;2.63;1.37;;;;;;;15.80;70.57;100860.03;5031695;28;20216;-80
2021/08/10 04:34:55;;;;;;;2.27;1.33;;;;;;;15.80;70.61;100860.88;5025438;28;20222;-80
2021/08/10 04:37:22;;;;;;;2.00;1.23;;;;;;;15.83;70.52;100860.63;5031143;28;20206;-80
2021/08/10 04:39:49;;;;;;;2.23;1.10;;;;;;;15.85;70.17;100860.50;5033804;28;20213;-80
2021/08/10 04:42:15;;;;;;;2.97;1.47;;;;;;;15.89;70.19;100864.66;5033731;28;20214;-80
2021/08/10 04:44:42;;;;;;;2.60;1.20;;;;;;;15.91;70.60;100863.56;5039641;28;20684;-80
2021/08/10 04:47:09;;;;;;;3.60;1.30;;;;;;;15.96;70.00;100871.22;5030918;28;20237;-80
2021/08/10 04:49:35;;;;;;;2.70;1.50;;;;;;;16.00;69.84;100877.19;5033498;28;20202;-81
2021/08/10 04:52:02;;;;;;;1.90;1.10;;;;;;;16.04;69.84;100874.13;5033661;28;20211;-80
2021/08/10 04:54:30;;;;;;;2.57;1.47;;;;;;;16.09;69.65;100866.56;5025255;28;20292;-80
2021/08/10 04:56:57;;;;;;;3.47;1.80;;;;;;;16.14;69.52;100864.31;5033654;28;20568;-80
2021/08/10 04:59:23;;;;;;;1.93;1.30;;;;;;;16.20;69.64;100862.97;5031553;28;20221;-80
2021/08/10 05:01:50;;;;;;;3.70;1.27;;;;;;;16.26;69.64;100859.78;5031546;28;20207;-81
2021/08/10 05:04:17;;;;;;;2.47;1.20;;;;;;;16.33;69.08;100869.00;5030903;28;20238;-81
2021/08/10 05:06:43;;;;;;;4.23;1.40;;;;;;;16.40;69.08;100869.38;5033194;28;20294;-80
2021/08/10 05:09:10;;;;;;;2.53;1.27;;;;;;;16.45;68.91;100861.78;5033004;28;20680;-80
2021/08/10 05:11:37;;;;;;;2.60;0.93;;;;;;;16.49;68.76;100861.34;5034699;28;20210;-80
2021/08/10 05:14:04;;;;;;;2.63;1.23;;;;;;;16.52;68.22;100853.03;5033551;28;20237;-80
2021/08/10 05:16:31;;;;;;;2.80;1.40;;;;;;;16.57;68.08;100861.56;5029717;28;20218;-81
2021/08/10 05:18:57;;;;;;;2.53;1.23;;;;;;;16.60;68.13;100855.94;5032370;28;20204;-81
2021/08/10 05:21:24;;;;;;;4.23;1.40;;;;;;;16.62;68.04;100851.28;5035429;28;20214;-80
2021/08/10 05:23:50;;;;;;;1.53;1.00;;;;;;;16.65;68.15;100847.53;5028130;28;20238;-80
2021/08/10 05:26:17;;;;;;;2.37;1.30;;;;;;;16.70;68.04;100853.34;5031900;28;20208;-80
2021/08/10 05:28:46;;;;;;;3.07;1.37;;;;;;;16.73;68.11;100852.22;5031062;28;20235;-80
2021/08/10 05:31:12;;;;;;;3.27;1.30;;;;;;;16.74;67.80;100844.03;5030300;28;20201;-80
2021/08/10 05:33:39;;;;;;;1.30;1.00;;;;;;;16.74;68.06;100846.72;5031300;28;20227;-80
2021/08/10 05:36:06;;;;;;;2.03;1.50;;;;;;;16.77;67.77;100845.59;5031257;28;20202;-80
2021/08/10 05:38:33;;;;;;;2.10;1.23;;;;;;;16.79;67.96;100865.16;5031499;28;20219;-81
2021/08/10 05:40:59;;;;;;;3.63;1.70;;;;;;;16.81;67.93;100863.19;5032896;28;20652;-80
2021/08/10 05:43:26;;;;;;;1.97;1.57;;;;;;;16.83;68.12;100867.47;5031112;28;20239;-81
2021/08/10 05:45:54;;;;;;;3.00;1.50;;;;;;;16.86;68.15;100871.69;5030450;28;20211;-81
2021/08/10 05:48:22;;;;;;;1.80;1.17;;;;;;;16.88;68.35;100867.91;5034163;28;20231;-80
2021/08/10 05:50:48;;;;;;;4.63;1.43;;;;;;;16.91;67.99;100864.09;5029625;28;20258;-80
2021/08/10 05:53:15;;;;;;;1.67;1.27;;;;;;;16.93;68.23;100868.34;5033719;28;20676;-80
2021/08/10 05:55:41;;;;;;;1.90;1.30;;;;;;;16.97;68.17;100866.25;5027163;28;20209;-80
2021/08/10 05:58:08;;;;;;;1.97;1.30;;;;;;;16.98;68.27;100874.22;5034883;28;20204;-80
2021/08/10 06:00:34;;;;;;;2.70;1.57;;;;;;;16.99;68.40;100870.53;5034976;28;20208;-81
2021/08/10 06:03:03;;;;;;;2.10;1.37;;;;;;;17.02;68.38;100872.06;5039327;28;20204;-80
2021/08/10 06:05:30;;;;;;;3.00;1.73;;;;;;;17.06;68.28;100875.34;5033692;28;20208;-80
2021/08/10 06:07:56;;;;;;;4.33;1.70;;;;;;;17.09;68.44;100867.88;5031645;28;20283;-80
2021/08/10 06:10:23;;;;;;;1.83;1.30;;;;;;;17.12;68.46;100877.53;5033582;28;20232;-80
2021/08/10 06:12:49;;;;;;;1.90;1.50;;;;;;;17.14;68.41;100875.56;5032196;28;20299;-80
2021/08/10 06:15:19;;;;;;;2.93;1.60;;;;;;;17.18;68.18;100891.31;5031815;28;20292;-80
2021/08/10 06:17:45;;;;;;;2.50;1.30;;;;;;;17.20;68.25;100889.31;5036773;28;20212;-80
2021/08/10 06:20:14;;;;;;;3.23;1.57;;;;;;;17.22;68.34;100898.13;5030136;28;20211;-80
2021/08/10 06:22:40;;;;;;;2.93;1.33;;;;;;;17.24;68.47;100904.22;5038085;28;20205;-81
2021/08/10 06:25:08;;;;;;;2.87;1.43;;;;;;;17.26;68.09;100896.88;5031302;28;20237;-81
2021/08/10 06:27:34;;;;;;;5.27;1.83;;;;;;;17.27;68.11;100892.34;5032870;28;20260;-81
2021/08/10 06:30:01;;;;;;;2.90;1.33;;;;;;;17.29;67.98;100901.13;5031902;28;20665;-81
2021/08/10 06:32:27;;;;;;;3.57;1.60;;;;;;;17.29;67.99;100896.59;5037802;28;20228;-81
2021/08/10 06:34:54;;;;;;;1.87;1.30;;;;;;;17.30;68.04;100895.63;5027530;28;20601;-81
2021/08/10 06:37:22;;;;;;;3.00;1.30;;;;;;;17.31;67.72;100899.16;5029506;28;20236;-81
2021/08/10 06:39:49;;;;;;;4.37;1.50;;;;;;;17.31;67.94;100905.41;5031230;28;20296;-81
2021/08/10 06:42:26;;;;;;;2.80;1.57;;;;;;;17.33;67.91;100908.81;5029635;28;20209;-80
2021/08/10 06:44:53;;;;;;;2.20;1.37;;;;;;;17.34;67.87;100915.91;5032343;28;20327;-81
2021/08/10 06:47:20;;;;;;;3.47;1.57;;;;;;;17.35;67.66;100914.06;5032869;28;20200;-80
2021/08/10 06:49:46;;;;;;;4.47;1.60;;;;;;;17.35;67.54;100914.91;5022896;28;20298;-81
2021/08/10 06:52:13;;;;;;;2.50;1.20;;;;;;;17.34;67.38;100920.44;5032070;28;20224;-80
2021/08/10 06:54:41;;;;;;;2.80;1.57;;;;;;;17.35;67.37;100922.16;5030096;28;20260;-80
2021/08/10 06:57:09;;;;;;;3.20;1.50;;;;;;;17.32;67.46;100923.25;5026195;28;20288;-80
2021/08/10 06:59:36;;;;;;;3.03;1.40;;;;;;;17.33;67.56;100924.13;5031843;28;20713;-80
2021/08/10 07:02:03;;;;;;;3.57;1.33;;;;;;;17.33;67.80;100913.34;5030660;28;20208;-80
2021/08/10 07:04:29;;;;;;;2.77;1.53;;;;;;;17.35;68.25;100906.00;5033021;28;20581;-81
2021/08/10 07:06:56;;;;;;;3.23;1.50;;;;;;;17.38;68.59;100896.78;5034713;28;20211;-80
2021/08/10 07:09:23;;;;;;;2.87;1.67;;;;;;;17.40;68.91;100886.72;5031068;28;20238;-81
2021/08/10 07:11:50;;;;;;;3.00;1.70;;;;;;;17.40;69.01;100871.41;5036077;28;20210;-81
2021/08/10 07:14:17;;;;;;;2.80;1.50;;;;;;;17.39;69.31;100875.09;5027041;28;20239;-80
2021/08/10 07:16:45;;;;;;;2.53;1.63;;;;;;;17.39;69.92;100863.47;5031675;28;20244;-82
2021/08/10 07:19:13;;;;;;;4.73;1.80;;;;;;;17.42;70.49;100850.59;5034731;28;20205;-81
2021/08/10 07:21:40;;;;;;;2.90;2.00;;;;;;;17.45;70.98;100852.16;5041445;28;20263;-80
2021/08/10 07:24:07;;;;;;;2.97;1.60;;;;;;;17.46;71.34;100848.50;5036143;28;20688;-80
2021/08/10 07:26:34;;;;;;;2.60;1.80;;;;;;;17.46;71.97;100854.72;5029178;28;20205;-81
2021/08/10 07:29:02;;;;;;;3.07;1.63;;;;;;;17.49;72.53;100859.84;5029495;28;20720;-79
2021/08/10 07:31:29;;;;;;;3.20;1.77;;;;;;;17.53;72.92;100841.59;5036964;28;20213;-82
2021/08/10 07:33:56;;;;;;;4.40;2.07;;;;;;;17.55;73.16;100836.91;5029324;28;20831;-79
2021/08/10 07:36:22;;;;;;;3.93;1.80;;;;;;;17.58;73.00;100834.78;5036367;28;20209;-79
2021/08/10 07:38:49;;;;;;;2.77;1.80;;;;;;;17.64;73.50;100834.25;5035634;28;20212;-80
2021/08/10 07:41:16;;;;;;;2.97;1.73;;;;;;;17.75;73.47;100843.19;5032135;28;20204;-80
2021/08/10 07:43:42;;;;;;;3.33;1.80;;;;;;;17.84;73.53;100856.72;5027528;28;20288;-80
2021/08/10 07:46:10;;;;;;;2.00;1.53;;;;;;;17.97;73.15;100854.59;5029664;28;20213;-80
2021/08/10 07:48:37;;;;;;;6.33;2.03;;;;;;;18.12;73.09;100846.09;5032523;28;20643;-80
2021/08/10 07:51:04;;;;;;;2.77;2.00;;;;;;;18.23;72.00;100841.44;5031478;28;20208;-80
2021/08/10 07:53:30;;;;;;;2.90;1.90;;;;;;;18.28;71.81;100836.47;5028781;28;20230;-81
2021/08/10 07:55:57;;;;;;;3.70;2.13;;;;;;;18.41;71.95;100844.28;5033331;28;20571;-79
2021/08/10 07:58:23;;;;;;;2.53;2.20;;;;;;;18.54;71.15;100850.22;5029495;28;20198;-79
2021/08/10 08:00:50;;;;;;;4.33;1.80;;;;;;;18.71;70.90;100854.91;5029887;28;20206;-79
2021/08/10 08:03:18;;;;;;;2.73;1.63;;;;;;;18.86;69.99;100847.22;5024653;28;20554;-80
2021/08/10 08:05:44;;;;;;;2.87;1.63;;;;;;;19.03;69.15;100843.75;5021666;28;20207;-79
2021/08/10 08:08:11;;;;;;;4.07;1.73;;;;;;;19.18;68.19;100840.56;5020673;28;20231;-79
2021/08/10 08:10:37;;;;;;;3.30;1.70;;;;;;;19.29;67.27;100843.97;5023714;28;20218;-79
2021/08/10 08:13:04;;;;;;;3.23;1.90;;;;;;;19.44;67.22;100841.63;5019577;28;20200;-83
2021/08/10 08:15:33;;;;;;;2.50;1.40;;;;;;;19.56;66.05;100845.84;5020107;28;20254;-79
2021/08/10 08:18:01;;;;;;;2.17;1.47;;;;;;;19.69;65.48;100854.47;5029897;28;20211;-79
2021/08/10 08:20:29;;;;;;;3.47;1.70;;;;;;;19.77;64.21;100849.13;5021111;28;20209;-80
2021/08/10 08:22:56;;;;;;;2.70;1.70;;;;;;;19.85;63.64;100856.50;5029485;28;20266;-82
2021/08/10 08:25:23;;;;;;;2.97;1.90;;;;;;;19.93;62.47;100850.31;5024873;28;20230;-81
2021/08/10 08:27:49;;;;;;;3.40;2.20;;;;;;;20.05;62.46;100852.66;5019080;28;20209;-81
2021/08/10 08:30:16;;;;;;;2.40;1.90;;;;;;;20.21;61.93;100851.13;5027023;28;20202;-79
2021/08/10 08:32:42;;;;;;;3.23;2.03;;;;;;;20.33;61.37;100852.59;5024868;28;20209;-79
2021/08/10 08:35:10;;;;;;;2.70;2.10;;;;;;;20.46;60.65;100853.06;5026503;28;20767;-81
2021/08/10 08:37:39;;;;;;;3.10;1.73;;;;;;;20.54;58.88;100858.56;5025627;28;20207;-80
2021/08/10 08:40:07;;;;;;;2.93;1.90;;;;;;;20.67;59.52;100859.00;5025895;28;20205;-80
2021/08/10 08:42:34;;;;;;;2.73;2.00;;;;;;;20.84;58.75;100856.41;5030084;28;20218;-81
2021/08/10 08:45:01;;;;;;;3.93;2.10;;;;;;;20.95;57.70;100861.59;5021872;28;20571;-80
2021/08/10 08:47:28;;;;;;;2.40;2.00;;;;;;;21.00;57.28;100861.94;5022797;28;20304;-81
2021/08/10 08:49:57;;;;;;;4.73;2.30;;;;;;;21.11;57.19;100856.28;5021981;28;20220;-80
2021/08/10 08:52:24;;;;;;;4.60;2.07;;;;;;;21.22;57.39;100856.00;5020862;28;20206;-80
2021/08/10 08:54:53;;;;;;;5.13;2.47;;;;;;;21.35;56.91;100856.41;5029383;28;20319;-81
2021/08/10 08:57:19;;;;;;;3.67;2.43;;;;;;;21.48;56.34;100859.56;5029273;28;20200;-79
2021/08/10 08:59:46;;;;;;;3.30;2.37;;;;;;;21.62;56.23;100852.66;5026977;28;20206;-79
2021/08/10 09:02:16;;;;;;;4.35;2.55;;;;;;;21.78;55.30;100854.56;5024226;28;20754;-80
2021/08/10 09:04:43;;;;;;;3.35;2.70;;;;;;;21.94;54.62;100849.19;5025577;28;20627;-80
2021/08/10 09:07:10;;;;;;;4.88;2.90;;;;;;;22.06;53.62;100844.31;5022021;28;20656;-80
2021/08/10 09:09:36;;;;;;;2.90;2.50;;;;;;;22.21;53.69;100833.69;5028556;28;20722;-79
2021/08/10 09:12:11;;;;;;;3.58;2.28;;;;;;;22.37;53.13;100836.41;5026650;28;20209;-80
2021/08/10 09:14:48;;;;;;;2.50;2.28;;;;;;;22.52;52.94;100832.84;5026420;28;20695;-81
2021/08/10 09:17:18;;;;;;;3.00;2.70;;;;;;;22.68;52.49;100823.00;5028430;28;20687;-80
2021/08/10 09:19:47;;;;;;;3.65;2.38;;;;;;;22.84;51.58;100825.72;5023086;28;20221;-80
2021/08/10 09:22:20;;;;;;;5.85;2.67;;;;;;;22.91;51.83;100820.47;5027521;28;20195;-80
2021/08/10 09:24:50;;;;;;;3.53;2.60;;;;;;;23.01;51.18;100813.78;5029424;28;20825;-79
2021/08/10 09:27:29;;;;;;;3.80;2.38;;;;;;;23.15;51.25;100812.22;5018357;28;20202;-79
2021/08/10 09:29:56;;;;;;;3.45;2.50;;;;;;;23.26;50.75;100824.59;5024331;28;20677;-79
2021/08/10 09:32:23;;;;;;;3.90;2.58;;;;;;;23.33;50.39;100834.59;5021850;28;20812;-79
2021/08/10 09:35:08;;;;;;;4.55;2.72;;;;;;;23.36;48.39;100828.81;5026666;28;20237;-79
2021/08/10 09:37:35;;;;;;;4.07;2.90;;;;;;;23.41;49.19;100833.72;5034991;28;20211;-79
2021/08/10 09:40:32;;;;;;;3.08;2.70;;;;;;;23.54;49.26;100834.88;5026872;28;20237;-79
2021/08/10 09:43:24;;;;;;;3.67;3.00;;;;;;;23.60;48.14;100830.63;5022963;28;20202;-80
2021/08/10 09:46:05;;;;;;;3.65;3.20;;;;;;;23.59;47.45;100822.63;5026635;28;20293;-80
2021/08/10 09:48:31;;;;;;;4.43;3.40;;;;;;;23.68;47.49;100818.81;5030201;28;20946;-80
2021/08/10 09:51:06;;;;;;;4.85;3.67;;;;;;;23.82;46.55;100813.50;5025147;28;20288;-79
2021/08/10 09:53:33;;;;;;;4.63;3.22;;;;;;;23.89;45.59;100811.75;5024695;28;20220;-79
2021/08/10 09:56:00;;;;;;;4.97;3.90;;;;;;;23.90;44.64;100826.19;5024999;28;20206;-79
2021/08/10 09:58:28;;;;;;;5.82;3.90;;;;;;;23.86;44.00;100827.56;5021965;28;20209;-79
2021/08/10 10:01:00;;;;;;;4.93;3.95;;;;;;;23.83;43.85;100822.47;5023371;28;20213;-79
2021/08/10 10:03:27;;;;;;;5.05;3.78;;;;;;;23.87;43.56;100823.81;5019429;28;20657;-79
2021/08/10 10:05:54;;;;;;;5.53;3.85;;;;;;;23.92;43.27;100823.28;5026379;28;20292;-79
2021/08/10 10:08:22;;;;;;;5.45;3.83;;;;;;;23.97;43.14;100824.47;5020366;28;20331;-79
2021/08/10 10:10:51;;;;;;;4.35;3.47;;;;;;;24.07;43.32;100814.19;5023669;28;20970;-79
2021/08/10 10:13:20;;;;;;;7.10;3.80;;;;;;;24.11;43.12;100820.97;5018730;28;20210;-79
2021/08/10 10:15:49;;;;;;;4.50;3.22;;;;;;;24.22;43.31;100820.53;5018524;28;20228;-80
2021/08/10 10:18:18;;;;;;;6.05;3.95;;;;;;;24.29;43.11;100820.69;5024371;28;20202;-80
2021/08/10 10:20:46;;;;;;;4.57;3.85;;;;;;;24.29;42.76;100817.97;5034778;28;20213;-80
2021/08/10 10:23:19;;;;;;;4.03;3.20;;;;;;;24.30;43.08;100818.81;5027604;28;20206;-80
2021/08/10 10:25:47;;;;;;;3.92;3.40;;;;;;;24.31;42.93;100806.91;5027981;28;20674;-80
2021/08/10 10:28:15;;;;;;;4.82;3.47;;;;;;;24.36;42.21;100805.34;5028446;28;20803;-80
2021/08/10 10:30:44;;;;;;;5.30;3.70;;;;;;;24.39;42.44;100798.66;5028009;28;20300;-81
2021/08/10 10:33:14;;;;;;;3.70;3.33;;;;;;;24.41;41.88;100799.31;5025519;28;20260;-81
2021/08/10 10:35:41;;;;;;;4.80;3.60;;;;;;;24.46;42.57;100799.63;5027737;28;20273;-81
2021/08/10 10:38:09;;;;;;;4.28;3.40;;;;;;;24.57;42.37;100782.81;5026937;28;20677;-80
2021/08/10 10:40:35;;;;;;;4.80;3.90;;;;;;;24.61;41.53;100789.59;5018509;28;20203;-81
2021/08/10 10:43:03;;;;;;;4.70;3.00;;;;;;;24.63;42.04;100784.81;5026507;28;20679;-86
2021/08/10 10:45:35;;;;;;;4.72;3.25;;;;;;;24.71;42.16;100773.88;5022520;28;20232;-83
2021/08/10 10:48:02;;;;;;;4.43;3.75;;;;;;;24.80;42.19;100778.19;5023852;28;20201;-85
2021/08/10 10:50:30;;;;;;;4.70;3.42;;;;;;;24.83;41.92;100796.03;5024677;28;20231;-82
2021/08/10 10:53:11;;;;;;;6.53;4.38;;;;;;;24.84;41.37;100784.09;5024361;28;20199;-84
2021/08/10 10:55:41;;;;;;;3.55;3.20;;;;;;;24.83;40.77;100777.81;5025306;28;20206;-89
2021/08/10 10:58:27;;;;;;;3.78;3.28;;;;;;;24.84;40.67;100782.22;5021599;28;20289;-85
2021/08/10 11:01:14;;;;;;;4.25;3.20;;;;;;;24.81;39.72;100796.22;5025000;28;20201;-83
2021/08/10 11:03:44;;;;;;;4.28;3.53;;;;;;;24.89;41.13;100776.22;5023468;28;20222;-86
2021/08/10 11:06:34;;;;;;;4.68;3.40;;;;;;;24.91;40.50;100791.31;5028252;28;20229;-85
2021/08/10 11:09:01;;;;;;;5.18;3.60;;;;;;;24.96;40.72;100792.69;5026353;28;20212;-86
2021/08/10 11:11:45;;;;;;;4.72;3.58;;;;;;;25.03;40.67;100782.75;5028131;28;20776;-82
2021/08/10 11:14:45;;;;;;;4.20;3.33;;;;;;;25.08;40.72;100780.31;5027768;28;20231;-84
2021/08/10 11:17:12;;;;;;;4.20;3.50;;;;;;;25.15;40.37;100786.69;5026769;28;20208;-86
2021/08/10 11:19:40;;;;;;;5.32;3.28;;;;;;;25.24;40.19;100780.94;5022511;28;20209;-83
2021/08/10 11:22:25;;;;;;;4.53;3.72;;;;;;;25.25;39.93;100784.53;5023812;28;20623;-86
2021/08/10 11:24:56;;;;;;;4.10;3.33;;;;;;;25.18;39.73;100783.56;5021037;28;20230;-85
2021/08/10 11:27:30;;;;;;;4.28;3.08;;;;;;;25.17;40.08;100790.06;5028988;28;20293;-87
2021/08/10 11:29:58;;;;;;;4.68;3.60;;;;;;;25.22;39.79;100783.03;5029157;28;20228;-86
2021/08/10 11:32:45;;;;;;;3.72;3.03;;;;;;;25.27;39.67;100774.25;5030675;28;20209;-86
2021/08/10 11:35:33;;;;;;;3.95;2.97;;;;;;;25.21;39.37;100777.75;5029192;28;20213;-87